ADDS - METARS form results

Aviation Digital Data Service (ADDS)

Output produced by METARs form (1640 UTC 30 September 2022)
found at http://aviationweather.gov/metar/data/
 
METAR text: KVYS 301615Z AUTO 00000KT 10SM CLR 17/08 A3032 RMK AO2 T01660083
Conditions at: KVYS (PERU , IL, US) observed 1615 UTC 30 September 2022
Temperature: 16.6°C (62°F)
Dewpoint: 8.3°C (47°F) [RH = 58%]
Pressure (altimeter): 30.32 inches Hg (1026.8 mb)
Winds: calm
Visibility: 10 or more miles (16+ km)
Ceiling: at least 12,000 feet AGL
Clouds: sky clear below 12,000 feet AGL
Weather: automated observation with no human augmentation;
there may or may not be significant weather present at this time

METAR text: KVYS 301555Z AUTO 00000KT 10SM CLR 16/09 A3033 RMK AO2 T01590085
Conditions at: KVYS (PERU , IL, US) observed 1555 UTC 30 September 2022
Temperature: 15.9°C (61°F)
Dewpoint: 8.5°C (47°F) [RH = 61%]
Pressure (altimeter): 30.33 inches Hg (1027.2 mb)
Winds: calm
Visibility: 10 or more miles (16+ km)
Ceiling: at least 12,000 feet AGL
Clouds: sky clear below 12,000 feet AGL
Weather: automated observation with no human augmentation;
there may or may not be significant weather present at this time